Time;durP1;ratioP1;P1;durP2;ratioP2;P2;SDS_P1;SDS_P2;PMS_P1;PMS_P2;Temp;Humidity;BMP_temperature;BMP_pressure;BME280_temperature;BME280_humidity;BME280_pressure;Samples;Min_cycle;Max_cycle;Signal;HPM_P1;HPM_P2
2021/05/09 00:01:03;;;;;;;4.35;2.15;;;;;;;4.86;83.82;100018.12;1802980;79;21342;-79
2021/05/09 00:04:10;;;;;;;6.12;2.25;;;;;;;4.85;83.87;100012.35;1803283;79;21292;-79
2021/05/09 00:07:16;;;;;;;9.13;2.67;;;;;;;4.84;83.95;100011.97;1803206;79;21244;-79
2021/05/09 00:10:22;;;;;;;3.20;2.10;;;;;;;4.84;83.93;100011.97;1801577;79;21181;-79
2021/05/09 00:13:28;;;;;;;7.40;2.17;;;;;;;4.81;84.00;100025.84;1801394;79;21351;-79
2021/05/09 00:16:36;;;;;;;3.72;2.65;;;;;;;4.79;84.04;100034.59;1802940;79;21279;-79
2021/05/09 00:19:45;;;;;;;4.70;2.33;;;;;;;4.76;84.15;100039.48;1801097;79;21296;-79
2021/05/09 00:22:51;;;;;;;6.67;2.37;;;;;;;4.72;84.18;100051.09;1800977;79;21760;-79
2021/05/09 00:25:57;;;;;;;5.87;2.60;;;;;;;4.65;84.26;100052.66;1801118;79;21181;-79
2021/05/09 00:29:03;;;;;;;5.30;2.67;;;;;;;4.60;84.40;100050.89;1801410;79;21292;-79
2021/05/09 00:32:08;;;;;;;3.98;2.47;;;;;;;4.54;84.47;100063.16;1802213;79;21887;-79
2021/05/09 00:35:16;;;;;;;7.37;2.25;;;;;;;4.51;84.55;100062.58;1802953;79;21861;-79
2021/05/09 00:38:23;;;;;;;2.33;2.05;;;;;;;4.48;84.48;100056.12;1803027;79;22560;-79
2021/05/09 00:41:28;;;;;;;3.00;1.90;;;;;;;4.43;84.43;100061.97;1801324;79;21212;-79
2021/05/09 00:44:34;;;;;;;4.37;2.12;;;;;;;4.36;84.58;100066.23;1807420;79;21901;-79
2021/05/09 00:47:41;;;;;;;4.95;2.67;;;;;;;4.31;84.79;100069.36;1812391;79;21324;-79
2021/05/09 00:50:47;;;;;;;3.62;2.42;;;;;;;4.29;84.87;100065.10;1811375;79;21300;-79
2021/05/09 00:53:54;;;;;;;4.25;2.60;;;;;;;4.25;84.95;100069.08;1811481;79;21292;-79
2021/05/09 00:57:01;;;;;;;5.58;2.65;;;;;;;4.23;84.93;100068.35;1811252;79;21715;-79
2021/05/09 01:00:07;;;;;;;5.55;3.33;;;;;;;4.18;84.80;100071.48;1811539;79;21331;-79
2021/05/09 01:03:15;;;;;;;4.53;2.50;;;;;;;4.13;84.79;100076.47;1809596;79;21287;-79
2021/05/09 01:06:19;;;;;;;3.75;2.55;;;;;;;4.07;84.95;100088.72;1811014;79;21291;-79
2021/05/09 01:09:26;;;;;;;6.47;3.20;;;;;;;4.02;85.08;100092.34;1811095;79;21304;-79
2021/05/09 01:12:33;;;;;;;4.78;2.77;;;;;;;4.00;85.25;100093.46;1810856;79;21240;-79
2021/05/09 01:15:40;;;;;;;7.20;3.00;;;;;;;3.98;85.35;100091.41;1811468;79;21298;-79
2021/05/09 01:18:48;;;;;;;8.00;3.33;;;;;;;3.93;85.48;100094.53;1811411;79;21342;-79
2021/05/09 01:21:54;;;;;;;8.48;3.70;;;;;;;3.93;85.65;100105.36;1809926;79;21243;-78
2021/05/09 01:25:00;;;;;;;5.85;3.10;;;;;;;3.93;85.69;100105.86;1810000;79;21200;-78
2021/05/09 01:28:05;;;;;;;5.10;3.05;;;;;;;3.94;85.70;100114.33;1811220;79;21371;-79
2021/05/09 01:31:11;;;;;;;11.78;3.65;;;;;;;3.92;85.76;100121.23;1811624;79;21299;-79
2021/05/09 01:34:17;;;;;;;13.15;3.10;;;;;;;3.94;85.81;100117.03;1811567;79;21345;-78
2021/05/09 01:37:23;;;;;;;13.22;4.22;;;;;;;3.95;85.79;100108.80;1809942;79;21887;-78
2021/05/09 01:40:29;;;;;;;5.35;2.60;;;;;;;3.97;85.73;100106.80;1811329;79;21227;-79
2021/05/09 01:43:35;;;;;;;3.83;2.35;;;;;;;3.99;85.69;100115.62;1809834;79;21866;-79
2021/05/09 01:46:41;;;;;;;5.12;2.52;;;;;;;4.02;85.58;100117.20;1789768;79;21300;-79
2021/05/09 01:49:48;;;;;;;7.15;2.10;;;;;;;4.03;85.47;100115.70;1813732;79;21303;-78
2021/05/09 01:52:47;;;;;;;4.53;2.30;;;;;;;4.04;85.34;100118.76;1812094;79;21295;-79
2021/05/09 01:55:39;;;;;;;5.20;2.37;;;;;;;4.03;85.25;100127.03;1812046;79;21184;-79
2021/05/09 01:58:48;;;;;;;5.53;2.37;;;;;;;4.03;85.20;100130.59;1812453;79;21693;-79
2021/05/09 02:01:58;;;;;;;5.42;2.35;;;;;;;4.01;85.14;100131.23;1813667;79;21215;-79
2021/05/09 02:05:06;;;;;;;4.35;2.60;;;;;;;3.99;85.06;100138.63;1813663;79;21330;-79
2021/05/09 02:08:12;;;;;;;2.87;2.22;;;;;;;3.98;84.99;100138.77;1813717;79;21176;-79
2021/05/09 02:11:20;;;;;;;5.25;2.12;;;;;;;3.97;84.97;100142.48;1813648;79;21287;-79
2021/05/09 02:14:27;;;;;;;4.97;2.75;;;;;;;3.96;84.90;100148.39;1812337;79;21337;-79
2021/05/09 02:17:34;;;;;;;7.72;2.35;;;;;;;3.93;84.80;100150.51;1813596;79;21247;-79
2021/05/09 02:20:42;;;;;;;8.25;2.70;;;;;;;3.90;84.76;100147.56;1813859;79;21180;-79
2021/05/09 02:23:47;;;;;;;6.25;2.22;;;;;;;3.89;84.72;100153.13;1812921;79;21271;-79
2021/05/09 02:26:55;;;;;;;3.98;2.08;;;;;;;3.88;84.72;100147.36;1811812;79;21180;-79
2021/05/09 02:30:00;;;;;;;5.90;2.33;;;;;;;3.88;84.72;100158.19;1783023;79;21313;-80
2021/05/09 02:33:06;;;;;;;4.05;2.52;;;;;;;3.96;84.79;100163.27;1812316;79;21366;-79
2021/05/09 02:36:12;;;;;;;3.52;2.17;;;;;;;4.23;84.54;100163.96;1812143;79;21319;-79
2021/05/09 02:39:19;;;;;;;2.92;2.20;;;;;;;4.47;83.64;100173.09;1813598;79;21347;-79
2021/05/09 02:42:23;;;;;;;3.95;2.20;;;;;;;4.60;82.65;100167.38;1813625;79;21817;-79
2021/05/09 02:45:29;;;;;;;3.60;2.30;;;;;;;4.66;81.99;100170.89;1799612;79;21319;-79
2021/05/09 02:48:39;;;;;;;2.72;2.17;;;;;;;4.64;81.50;100174.23;1768256;81;21248;-79
2021/05/09 02:51:44;;;;;;;5.17;2.55;;;;;;;4.59;81.35;100176.50;1768291;81;21295;-79
2021/05/09 02:54:50;;;;;;;4.12;2.30;;;;;;;4.55;81.37;100182.70;1767197;81;21308;-79
2021/05/09 02:57:57;;;;;;;4.40;2.10;;;;;;;4.54;81.42;100185.55;1768189;81;21201;-79
2021/05/09 03:01:02;;;;;;;3.08;2.02;;;;;;;4.52;81.39;100192.98;1767078;81;21272;-79
2021/05/09 03:04:07;;;;;;;5.87;2.47;;;;;;;4.52;81.39;100202.46;1768222;81;21372;-79
2021/05/09 03:07:15;;;;;;;2.83;2.37;;;;;;;4.54;81.49;100200.45;1766981;81;21284;-79
2021/05/09 03:10:21;;;;;;;4.92;2.40;;;;;;;4.59;81.60;100209.02;1768348;81;21365;-79
2021/05/09 03:13:20;;;;;;;9.38;2.72;;;;;;;4.68;81.57;100212.23;1768297;81;21288;-79
2021/05/09 03:16:25;;;;;;;5.53;2.20;;;;;;;4.82;81.47;100217.23;1767990;81;21336;-79
2021/05/09 03:19:32;;;;;;;3.67;2.15;;;;;;;4.92;80.87;100223.16;1766916;81;21185;-80
2021/05/09 03:22:38;;;;;;;8.63;1.90;;;;;;;4.95;80.47;100228.31;1766936;81;21303;-79
2021/05/09 03:25:47;;;;;;;3.33;1.92;;;;;;;4.96;80.17;100239.50;1766809;81;21216;-79
2021/05/09 03:28:53;;;;;;;5.08;2.22;;;;;;;4.94;80.22;100243.72;1768286;81;21296;-79
2021/05/09 03:31:59;;;;;;;7.75;2.10;;;;;;;4.92;80.32;100248.91;1768240;81;21919;-79
2021/05/09 03:35:07;;;;;;;3.17;1.87;;;;;;;4.92;80.37;100254.33;1767543;81;21307;-79
2021/05/09 03:38:12;;;;;;;3.37;2.02;;;;;;;4.90;80.31;100267.19;1768389;81;21917;-79
2021/05/09 03:41:20;;;;;;;4.37;2.20;;;;;;;4.86;80.23;100269.31;1768316;81;21827;-79
2021/05/09 03:44:25;;;;;;;3.87;1.95;;;;;;;4.82;80.20;100278.22;1768097;81;21952;-79
2021/05/09 03:47:30;;;;;;;8.00;2.60;;;;;;;4.77;80.26;100276.93;1791643;79;21914;-79
2021/05/09 03:50:35;;;;;;;9.28;2.58;;;;;;;4.77;80.38;100285.91;1802729;79;21292;-79
2021/05/09 03:53:41;;;;;;;5.97;2.67;;;;;;;4.75;80.40;100287.03;1802922;79;21218;-79
2021/05/09 03:56:45;;;;;;;4.85;1.85;;;;;;;4.73;80.51;100295.31;1802901;79;21756;-79
2021/05/09 03:59:56;;;;;;;6.95;2.10;;;;;;;4.76;80.60;100301.82;1801435;79;21875;-79
2021/05/09 04:03:05;;;;;;;6.58;2.60;;;;;;;4.81;80.61;100301.41;1802948;79;21937;-79
2021/05/09 04:06:12;;;;;;;4.22;2.20;;;;;;;4.94;80.53;100308.78;1801681;79;21335;-79
2021/05/09 04:09:18;;;;;;;3.95;2.42;;;;;;;5.16;80.42;100309.00;1801488;79;21295;-79
2021/05/09 04:12:24;;;;;;;4.20;2.15;;;;;;;5.45;80.18;100312.22;1801498;79;21319;-79
2021/05/09 04:15:29;;;;;;;5.83;2.17;;;;;;;5.76;79.49;100312.91;1801370;79;21284;-79
2021/05/09 04:21:05;;;;;;;2.87;2.10;;;;;;;6.32;77.67;100312.08;1857504;76;28541;-78
2021/05/09 04:24:12;;;;;;;2.47;1.87;;;;;;;6.45;77.24;100306.31;1749633;81;21314;-79
2021/05/09 04:27:18;;;;;;;3.27;2.33;;;;;;;6.62;75.23;100310.93;1736902;82;21276;-79
2021/05/09 04:30:24;;;;;;;5.53;2.60;;;;;;;6.74;74.31;100318.39;1749919;82;21270;-79
2021/05/09 04:33:33;;;;;;;8.98;2.35;;;;;;;6.88;74.34;100319.25;1736129;82;21323;-79
2021/05/09 04:36:40;;;;;;;3.30;2.00;;;;;;;7.03;73.93;100318.22;1751073;82;21278;-79
2021/05/09 04:39:48;;;;;;;3.52;2.15;;;;;;;7.11;73.43;100332.77;1736554;82;21190;-79
2021/05/09 04:42:52;;;;;;;5.10;2.30;;;;;;;7.16;73.50;100327.72;1750971;81;21226;-79
2021/05/09 04:46:01;;;;;;;6.62;2.27;;;;;;;7.27;73.12;100332.07;1736160;82;21303;-79
2021/05/09 04:49:07;;;;;;;4.37;2.37;;;;;;;7.40;72.13;100334.41;1751400;81;21750;-79
2021/05/09 04:52:11;;;;;;;4.15;2.30;;;;;;;7.51;71.23;100331.95;1737342;82;21276;-79
2021/05/09 04:55:16;;;;;;;6.92;2.55;;;;;;;7.60;71.65;100343.27;1751456;82;21266;-79
2021/05/09 04:58:21;;;;;;;6.03;2.70;;;;;;;7.70;71.44;100348.13;1737413;82;21300;-79
2021/05/09 05:01:27;;;;;;;3.45;2.12;;;;;;;7.77;70.28;100352.45;1751418;82;21721;-79
2021/05/09 05:04:32;;;;;;;3.47;2.10;;;;;;;7.90;70.64;100356.48;1737402;82;21750;-79
2021/05/09 05:07:37;;;;;;;4.42;2.65;;;;;;;8.08;71.33;100358.30;1751464;81;21192;-79
2021/05/09 05:10:44;;;;;;;9.73;2.60;;;;;;;8.27;70.27;100359.45;1737473;82;21315;-79
2021/05/09 05:13:50;;;;;;;3.95;2.70;;;;;;;8.39;67.16;100360.08;1749837;81;21183;-79
2021/05/09 05:16:56;;;;;;;4.53;2.37;;;;;;;8.41;68.28;100372.52;1737451;82;21158;-79
2021/05/09 05:20:01;;;;;;;8.15;3.33;;;;;;;8.47;68.11;100379.70;1749889;82;21312;-79
2021/05/09 05:23:07;;;;;;;6.78;2.87;;;;;;;8.52;67.94;100385.55;1727262;83;21315;-79
2021/05/09 05:26:13;;;;;;;5.25;2.50;;;;;;;8.57;67.51;100380.47;1743503;82;21141;-79
2021/05/09 05:29:19;;;;;;;5.25;2.87;;;;;;;8.60;68.63;100392.39;1727211;83;21205;-79
2021/05/09 05:32:24;;;;;;;6.90;2.50;;;;;;;8.63;67.93;100387.99;1742934;81;21303;-79
2021/05/09 05:35:29;;;;;;;4.37;2.60;;;;;;;8.72;68.16;100386.17;1726843;83;21304;-79
2021/05/09 05:38:36;;;;;;;6.67;2.67;;;;;;;8.88;67.75;100373.96;1742916;81;21750;-79
2021/05/09 05:41:40;;;;;;;5.30;2.90;;;;;;;9.04;67.14;100384.95;1726740;83;21308;-79
2021/05/09 05:44:46;;;;;;;7.03;4.17;;;;;;;9.14;66.77;100380.73;1742920;82;21294;-79
2021/05/09 05:47:52;;;;;;;6.80;3.62;;;;;;;9.18;59.46;100382.11;1726749;83;21320;-79
2021/05/09 05:50:59;;;;;;;8.68;3.65;;;;;;;9.22;61.66;100384.83;1742419;82;21192;-79
2021/05/09 05:54:06;;;;;;;5.33;3.40;;;;;;;9.24;59.19;100393.72;1726742;83;21327;-79
2021/05/09 05:57:10;;;;;;;8.63;2.83;;;;;;;9.29;58.89;100384.52;1742918;81;21825;-79
2021/05/09 06:00:16;;;;;;;5.40;3.00;;;;;;;9.37;59.41;100409.13;1726631;83;21332;-79
2021/05/09 06:03:23;;;;;;;6.60;3.15;;;;;;;9.38;59.25;100414.92;1742856;81;21180;-79
2021/05/09 06:06:26;;;;;;;5.50;2.98;;;;;;;9.42;60.79;100415.45;1726601;83;21855;-79
2021/05/09 06:09:34;;;;;;;9.25;4.75;;;;;;;9.57;61.61;100422.48;1743042;82;21251;-79
2021/05/09 06:12:39;;;;;;;13.65;5.05;;;;;;;9.77;55.07;100422.50;1726736;83;21332;-79
2021/05/09 06:15:45;;;;;;;13.40;6.20;;;;;;;9.87;51.14;100440.11;1742941;82;21267;-80
2021/05/09 06:18:50;;;;;;;11.65;5.62;;;;;;;9.85;51.40;100424.41;1726794;83;21190;-80
2021/05/09 06:21:56;;;;;;;14.13;5.65;;;;;;;9.84;51.36;100429.53;1741945;82;21291;-79
2021/05/09 06:25:00;;;;;;;11.12;5.35;;;;;;;9.84;50.31;100425.44;1726726;83;21727;-79
2021/05/09 06:28:05;;;;;;;9.05;3.47;;;;;;;9.87;50.19;100435.49;1742930;81;21283;-79
2021/05/09 06:31:10;;;;;;;7.00;3.90;;;;;;;9.91;46.77;100445.06;1726842;83;21284;-79
2021/05/09 06:34:17;;;;;;;8.85;3.50;;;;;;;9.97;47.58;100428.02;1742923;81;21298;-79
2021/05/09 06:37:22;;;;;;;12.45;2.95;;;;;;;10.04;48.16;100422.71;1726503;83;21941;-79
2021/05/09 06:40:28;;;;;;;5.03;3.02;;;;;;;10.09;45.21;100453.63;1742954;82;21271;-80
2021/05/09 06:43:34;;;;;;;7.17;2.72;;;;;;;10.08;45.15;100419.14;1726630;83;21182;-79
2021/05/09 06:46:39;;;;;;;4.25;2.85;;;;;;;10.06;45.66;100422.53;1742952;82;21845;-80
2021/05/09 06:49:45;;;;;;;5.28;2.72;;;;;;;10.11;45.61;100429.70;1725129;83;21174;-79
2021/05/09 06:52:51;;;;;;;6.65;2.67;;;;;;;10.17;44.84;100434.00;1741777;81;21275;-79
2021/05/09 06:55:59;;;;;;;5.95;3.10;;;;;;;10.22;45.10;100415.20;1726729;83;21201;-79
2021/05/09 06:59:04;;;;;;;5.83;2.70;;;;;;;10.26;43.72;100440.36;1742867;81;21307;-80
2021/05/09 07:02:09;;;;;;;8.28;3.15;;;;;;;10.29;43.75;100427.69;1726706;83;21312;-79
2021/05/09 07:05:14;;;;;;;8.05;3.25;;;;;;;10.31;42.30;100442.06;1742967;82;21274;-80
2021/05/09 07:08:20;;;;;;;8.35;3.55;;;;;;;10.36;42.97;100447.87;1726635;83;21812;-79
2021/05/09 07:11:26;;;;;;;6.45;3.25;;;;;;;10.39;43.28;100425.62;1742931;82;21315;-79
2021/05/09 07:14:30;;;;;;;6.17;3.25;;;;;;;10.48;45.48;100423.22;1726654;83;21336;-79
2021/05/09 07:17:35;;;;;;;8.20;3.12;;;;;;;10.61;42.66;100419.97;1742901;81;21232;-79
2021/05/09 07:20:44;;;;;;;10.45;3.00;;;;;;;10.66;42.10;100424.39;1726753;83;21280;-79
2021/05/09 07:23:49;;;;;;;5.60;2.80;;;;;;;10.65;41.80;100439.11;1741608;81;21878;-79
2021/05/09 07:26:54;;;;;;;7.50;2.17;;;;;;;10.62;41.97;100442.70;1726717;83;21288;-79
2021/05/09 07:29:59;;;;;;;5.95;2.70;;;;;;;10.67;43.99;100434.82;1742844;82;21844;-80
2021/05/09 07:33:05;;;;;;;7.55;2.80;;;;;;;10.74;39.95;100429.01;1726333;83;22178;-80
2021/05/09 07:36:10;;;;;;;7.53;3.42;;;;;;;10.76;40.88;100422.84;1742921;82;21326;-79
2021/05/09 07:39:15;;;;;;;3.92;2.05;;;;;;;10.84;41.40;100436.50;1726674;83;21336;-79
2021/05/09 07:42:21;;;;;;;4.30;2.37;;;;;;;10.96;41.85;100431.01;1742815;81;21295;-79
2021/05/09 07:45:28;;;;;;;10.45;2.27;;;;;;;11.08;40.42;100430.62;1726681;83;21281;-80
2021/05/09 07:48:33;;;;;;;3.80;2.30;;;;;;;11.05;37.92;100432.33;1742895;81;21227;-80
2021/05/09 07:51:39;;;;;;;6.72;2.70;;;;;;;11.06;41.07;100429.44;1726728;83;21284;-79
2021/05/09 07:54:46;;;;;;;10.20;3.92;;;;;;;11.06;40.00;100423.11;1720961;82;21129;-80
2021/05/09 07:57:52;;;;;;;7.78;2.75;;;;;;;11.06;41.27;100433.54;1726675;83;21312;-80
2021/05/09 08:00:58;;;;;;;7.87;2.83;;;;;;;11.06;40.21;100458.17;1742902;82;21279;-80
2021/05/09 08:04:04;;;;;;;7.75;2.92;;;;;;;11.07;41.52;100461.77;1725523;83;21300;-79
2021/05/09 08:07:10;;;;;;;7.17;2.83;;;;;;;11.13;40.98;100447.36;1742839;81;21259;-80
2021/05/09 08:10:17;;;;;;;5.95;2.87;;;;;;;11.22;42.39;100461.36;1726713;83;21300;-80
2021/05/09 08:13:22;;;;;;;6.85;1.92;;;;;;;11.34;42.10;100464.55;1742223;81;21310;-80
2021/05/09 08:16:26;;;;;;;7.83;2.80;;;;;;;11.39;41.84;100459.42;1726705;83;21735;-80
2021/05/09 08:19:32;;;;;;;4.15;1.98;;;;;;;11.44;40.08;100437.31;1742913;82;21152;-80
2021/05/09 08:22:37;;;;;;;4.95;1.47;;;;;;;11.44;39.54;100466.59;1726430;83;21332;-80
2021/05/09 08:25:42;;;;;;;3.42;1.77;;;;;;;11.44;41.02;100472.06;1742841;82;21829;-80
2021/05/09 08:28:47;;;;;;;2.75;1.60;;;;;;;11.43;40.84;100477.18;1726727;83;21304;-80
2021/05/09 08:31:54;;;;;;;2.22;1.55;;;;;;;11.43;42.31;100484.91;1742891;82;21267;-80
2021/05/09 08:35:00;;;;;;;2.77;1.30;;;;;;;11.45;42.58;100489.68;1726675;83;21284;-80
2021/05/09 08:38:06;;;;;;;3.95;1.92;;;;;;;11.40;41.28;100492.10;1742765;81;21294;-80
2021/05/09 08:41:12;;;;;;;11.10;2.15;;;;;;;11.42;41.17;100460.41;1726809;83;21170;-80
2021/05/09 08:44:18;;;;;;;2.85;2.15;;;;;;;11.51;41.22;100471.16;1742824;81;21734;-80
2021/05/09 08:47:36;;;;;;;2.62;1.50;;;;;;;11.59;39.84;100517.37;1726657;83;21324;-80
2021/05/09 08:50:31;;;;;;;5.90;1.70;;;;;;;11.60;39.59;100497.15;1742743;82;21255;-80
2021/05/09 08:53:36;;;;;;;3.30;1.70;;;;;;;11.66;40.98;100500.02;1726417;83;21808;-80
2021/05/09 08:56:40;;;;;;;3.08;1.40;;;;;;;11.75;40.57;100489.88;1742803;82;21275;-80
2021/05/09 08:59:45;;;;;;;5.37;1.65;;;;;;;11.74;40.46;100499.13;1726642;83;21281;-80
2021/05/09 09:02:50;;;;;;;3.45;1.80;;;;;;;11.78;39.60;100499.12;1738375;82;21201;-84
2021/05/09 09:05:58;;;;;;;4.58;1.87;;;;;;;11.84;39.65;100500.31;1730067;83;21237;-80
2021/05/09 09:09:03;;;;;;;9.45;1.90;;;;;;;11.82;41.42;100498.25;1739207;82;21283;-80
2021/05/09 09:12:09;;;;;;;3.80;1.50;;;;;;;11.86;42.04;100490.04;1739876;82;21260;-84
2021/05/09 09:15:15;;;;;;;3.22;1.52;;;;;;;11.96;41.69;100508.47;1739895;82;21265;-84
2021/05/09 09:18:48;;;;;;;3.05;1.30;;;;;;;12.03;42.77;100514.41;1739264;82;21816;-84
2021/05/09 09:21:54;;;;;;;1.45;1.20;;;;;;;12.16;40.96;100505.59;1739168;82;22049;-84
2021/05/09 09:25:14;;;;;;;2.72;1.17;;;;;;;12.23;39.25;100518.05;1743975;82;21809;-83
2021/05/09 09:28:21;;;;;;;2.30;1.00;;;;;;;12.21;39.07;100517.39;1750441;82;21304;-84
2021/05/09 09:31:48;;;;;;;3.55;1.20;;;;;;;12.21;39.32;100541.55;1750948;82;21333;-84
2021/05/09 09:34:54;;;;;;;3.05;1.20;;;;;;;12.25;38.85;100522.33;1750046;82;21159;-84
2021/05/09 09:38:02;;;;;;;3.22;1.40;;;;;;;12.32;39.34;100540.27;1751083;82;21316;-84
2021/05/09 09:41:23;;;;;;;4.08;1.32;;;;;;;12.43;40.51;100528.04;1751119;82;21871;-84
2021/05/09 09:44:32;;;;;;;4.03;1.30;;;;;;;12.58;40.12;100501.50;1751095;82;21195;-84
2021/05/09 09:47:56;;;;;;;2.35;1.10;;;;;;;12.63;40.65;100525.64;1751084;82;21285;-84
2021/05/09 09:51:02;;;;;;;1.87;1.20;;;;;;;12.63;39.99;100548.97;1751148;82;21736;-84
2021/05/09 09:54:07;;;;;;;2.45;1.42;;;;;;;12.48;39.92;100536.05;1737972;82;21296;-84
2021/05/09 09:57:14;;;;;;;1.82;1.20;;;;;;;12.40;40.16;100540.73;1751147;82;21178;-81
2021/05/09 10:00:21;;;;;;;2.27;1.32;;;;;;;12.43;38.94;100546.72;1751032;82;21176;-81
2021/05/09 10:03:27;;;;;;;3.02;1.60;;;;;;;12.59;38.64;100550.38;1750334;82;21195;-81
2021/05/09 10:06:33;;;;;;;2.05;1.30;;;;;;;12.74;38.90;100533.42;1751160;82;21195;-82
2021/05/09 10:09:39;;;;;;;2.60;1.27;;;;;;;12.78;38.12;100560.84;1751164;82;21191;-81
2021/05/09 10:12:44;;;;;;;5.03;1.32;;;;;;;12.73;38.29;100557.28;1751166;82;21372;-81
2021/05/09 10:15:50;;;;;;;2.05;1.22;;;;;;;12.65;39.25;100550.47;1751107;82;21274;-81
2021/05/09 10:19:05;;;;;;;9.68;1.20;;;;;;;12.49;38.67;100577.53;1749521;81;21198;-82
2021/05/09 10:22:35;;;;;;;2.20;1.02;;;;;;;12.28;37.06;100548.55;1751140;82;21266;-82
2021/05/09 10:26:00;;;;;;;2.20;1.30;;;;;;;12.32;37.53;100551.23;1748579;81;21717;-82
2021/05/09 10:29:06;;;;;;;8.68;1.27;;;;;;;12.57;40.32;100546.97;1742932;82;21852;-81
2021/05/09 10:32:30;;;;;;;2.05;1.07;;;;;;;12.72;38.24;100565.18;1742957;82;21155;-82
2021/05/09 10:35:45;;;;;;;1.60;1.07;;;;;;;12.69;39.55;100569.66;1742974;82;21678;-82
2021/05/09 10:39:22;;;;;;;3.55;1.20;;;;;;;12.79;37.04;100560.64;1742933;82;21206;-82
2021/05/09 10:42:29;;;;;;;4.72;1.10;;;;;;;12.90;37.32;100568.98;1742928;82;21249;-82
2021/05/09 10:45:46;;;;;;;1.17;1.07;;;;;;;12.87;37.40;100578.95;1742947;82;21314;-82
2021/05/09 10:48:51;;;;;;;2.40;1.20;;;;;;;12.81;37.15;100589.30;1742945;82;21175;-81
2021/05/09 10:51:57;;;;;;;3.80;1.30;;;;;;;12.60;36.89;100576.77;1743020;82;21761;-81
2021/05/09 10:55:02;;;;;;;2.17;1.30;;;;;;;12.46;37.12;100564.69;1725646;82;21219;-81
2021/05/09 10:58:07;;;;;;;1.60;1.17;;;;;;;12.43;37.98;100585.13;1713117;84;21310;-81
2021/05/09 11:01:25;;;;;;;1.30;1.02;;;;;;;12.36;38.52;100582.76;1713372;84;21282;-81
2021/05/09 11:04:31;;;;;;;4.53;1.32;;;;;;;12.33;37.83;100577.66;1713273;84;21191;-81
2021/05/09 11:07:54;;;;;;;1.25;1.10;;;;;;;12.36;37.12;100573.16;1691713;84;21844;-81
2021/05/09 11:11:01;;;;;;;1.57;1.00;;;;;;;12.57;38.61;100549.71;1712257;84;21224;-81
2021/05/09 11:14:11;;;;;;;1.85;1.27;;;;;;;12.92;38.69;100574.28;1713428;84;21330;-82
2021/05/09 11:17:17;;;;;;;3.70;1.60;;;;;;;13.17;38.61;100567.50;1713435;84;21858;-82
2021/05/09 11:20:24;;;;;;;5.53;1.22;;;;;;;13.39;37.36;100574.02;1713508;84;21351;-82
2021/05/09 11:23:29;;;;;;;2.27;1.30;;;;;;;13.51;38.04;100562.05;1713442;84;21306;-82
2021/05/09 11:26:38;;;;;;;4.83;1.30;;;;;;;13.58;36.48;100567.62;1711967;82;21180;-82
2021/05/09 11:29:40;;;;;;;3.77;1.22;;;;;;;13.61;35.63;100555.73;1713431;84;21821;-81
2021/05/09 11:32:45;;;;;;;5.10;1.32;;;;;;;13.65;35.15;100571.34;1713256;84;21180;-81
2021/05/09 11:35:50;;;;;;;2.15;1.12;;;;;;;13.58;35.22;100578.63;1713398;84;21710;-82
2021/05/09 11:38:56;;;;;;;3.92;1.60;;;;;;;13.45;36.04;100583.39;1713344;84;21199;-81
2021/05/09 11:42:08;;;;;;;2.30;1.40;;;;;;;13.31;34.99;100571.34;1713213;84;21765;-81
2021/05/09 11:45:14;;;;;;;3.10;1.30;;;;;;;13.11;35.29;100586.63;1713337;84;21326;-82
2021/05/09 11:48:22;;;;;;;5.10;1.30;;;;;;;12.91;36.30;100590.42;1713278;84;21310;-81
2021/05/09 11:51:28;;;;;;;3.55;1.07;;;;;;;12.77;37.48;100587.96;1713374;84;21264;-81
2021/05/09 11:54:46;;;;;;;3.27;0.98;;;;;;;12.68;35.70;100579.45;1713385;84;21195;-81
2021/05/09 11:57:51;;;;;;;3.00;1.15;;;;;;;12.75;36.28;100574.43;1713315;84;21177;-82
2021/05/09 12:00:57;;;;;;;1.85;1.10;;;;;;;12.97;37.98;100588.30;1713355;84;21168;-81
2021/05/09 12:04:02;;;;;;;3.62;1.00;;;;;;;13.17;36.33;100595.49;1713280;84;21364;-82
2021/05/09 12:07:09;;;;;;;3.60;1.20;;;;;;;13.21;34.94;100594.93;1692301;84;21295;-81
2021/05/09 12:10:23;;;;;;;3.50;1.02;;;;;;;13.04;34.85;100604.38;1713461;84;21315;-82
2021/05/09 12:13:28;;;;;;;2.08;1.35;;;;;;;12.93;35.40;100587.81;1713339;84;21192;-81
2021/05/09 12:16:33;;;;;;;1.12;0.80;;;;;;;13.12;35.14;100604.81;1713445;84;21185;-81
2021/05/09 12:19:40;;;;;;;2.45;1.20;;;;;;;13.34;35.80;100575.09;1713621;84;21275;-81
2021/05/09 12:22:48;;;;;;;1.77;1.15;;;;;;;13.47;33.46;100572.56;1713304;84;21210;-81
2021/05/09 12:25:56;;;;;;;1.35;0.90;;;;;;;13.39;34.23;100626.22;1711875;84;21302;-81
2021/05/09 12:29:01;;;;;;;1.05;0.80;;;;;;;13.41;35.15;100603.55;1712211;82;21322;-82
2021/05/09 12:32:35;;;;;;;1.17;0.85;;;;;;;13.59;34.39;100598.19;1713289;84;21192;-81
2021/05/09 12:35:55;;;;;;;2.67;1.20;;;;;;;13.83;33.69;100608.04;1713737;84;21319;-81
2021/05/09 12:39:02;;;;;;;2.62;1.30;;;;;;;13.87;31.85;100634.12;1712843;84;21335;-81
2021/05/09 12:42:08;;;;;;;1.98;1.25;;;;;;;13.60;31.45;100610.88;1714000;84;21319;-81
2021/05/09 12:45:19;;;;;;;1.77;1.20;;;;;;;13.38;33.90;100634.13;1714063;84;21853;-81
2021/05/09 12:48:28;;;;;;;2.25;1.20;;;;;;;13.15;34.57;100623.16;1713043;84;21856;-81
2021/05/09 12:51:32;;;;;;;3.60;0.90;;;;;;;13.00;35.27;100629.98;1714132;84;21322;-82
2021/05/09 12:54:52;;;;;;;2.00;1.20;;;;;;;12.94;35.34;100641.70;1713999;84;21829;-82
2021/05/09 12:58:16;;;;;;;2.33;1.47;;;;;;;12.87;36.09;100646.20;1713141;84;21307;-82
2021/05/09 13:01:28;;;;;;;2.02;1.00;;;;;;;12.81;36.48;100644.20;1713702;84;21302;-81
2021/05/09 13:04:48;;;;;;;10.30;4.03;;;;;;;12.79;35.20;100635.28;1712020;84;21723;-81
2021/05/09 13:07:54;;;;;;;3.80;1.27;;;;;;;12.83;35.91;100650.35;1712615;84;21897;-81
2021/05/09 13:10:59;;;;;;;1.65;1.20;;;;;;;12.83;35.78;100644.86;1713649;84;21777;-81
2021/05/09 13:14:05;;;;;;;2.37;1.10;;;;;;;12.79;34.48;100647.63;1713356;84;21188;-81
2021/05/09 13:17:10;;;;;;;1.22;0.88;;;;;;;12.69;35.37;100651.14;1692043;84;21845;-81
2021/05/09 13:20:17;;;;;;;3.47;1.60;;;;;;;12.62;35.95;100661.16;1713592;84;21144;-81
2021/05/09 13:23:23;;;;;;;1.62;0.95;;;;;;;12.54;36.51;100660.15;1713613;84;21317;-81
2021/05/09 13:26:29;;;;;;;3.33;1.37;;;;;;;12.50;37.12;100660.17;1713585;84;21212;-80
2021/05/09 13:29:35;;;;;;;4.25;1.32;;;;;;;12.48;37.83;100666.37;1712424;82;21228;-81
2021/05/09 13:32:40;;;;;;;5.62;1.10;;;;;;;12.47;37.34;100655.06;1713691;84;21310;-81
2021/05/09 13:35:47;;;;;;;4.10;1.17;;;;;;;12.50;35.75;100660.17;1712217;84;21299;-81
2021/05/09 13:38:52;;;;;;;4.03;2.35;;;;;;;12.51;35.87;100667.39;1712072;84;21331;-81
2021/05/09 13:41:58;;;;;;;4.03;1.90;;;;;;;12.55;36.18;100666.48;1712280;84;21797;-81
2021/05/09 13:45:03;;;;;;;1.82;1.00;;;;;;;12.56;36.14;100671.45;1713406;84;21236;-81
2021/05/09 13:48:09;;;;;;;3.02;1.00;;;;;;;12.52;35.91;100679.22;1712492;84;21178;-81
2021/05/09 13:51:15;;;;;;;1.25;1.05;;;;;;;12.51;37.24;100666.50;1713651;84;21195;-81
2021/05/09 13:54:22;;;;;;;1.47;1.00;;;;;;;12.50;36.92;100675.26;1712472;84;21203;-81
2021/05/09 13:57:29;;;;;;;3.12;1.32;;;;;;;12.47;37.80;100677.02;1713197;84;21746;-81
2021/05/09 14:00:34;;;;;;;2.35;1.40;;;;;;;12.42;37.56;100669.84;1713543;84;21213;-81
2021/05/09 14:03:39;;;;;;;1.75;1.10;;;;;;;12.32;37.43;100676.03;1713314;84;21342;-81
2021/05/09 14:06:45;;;;;;;8.50;3.00;;;;;;;12.24;37.98;100687.92;1713444;84;21168;-80
2021/05/09 14:09:50;;;;;;;2.55;1.30;;;;;;;12.18;38.01;100682.27;1713405;84;21824;-80
2021/05/09 14:12:56;;;;;;;1.77;1.10;;;;;;;12.23;38.99;100684.84;1713380;84;21310;-81
2021/05/09 14:16:00;;;;;;;3.17;1.05;;;;;;;12.39;38.84;100671.56;1713394;84;21804;-80
2021/05/09 14:19:07;;;;;;;2.00;1.10;;;;;;;12.62;36.91;100666.64;1713359;84;21196;-81
2021/05/09 14:22:12;;;;;;;2.30;1.27;;;;;;;12.76;36.57;100663.12;1713445;84;21176;-83
2021/05/09 14:25:19;;;;;;;3.98;1.00;;;;;;;12.79;35.33;100664.95;1713335;84;21872;-81
2021/05/09 14:28:23;;;;;;;8.95;2.62;;;;;;;12.83;34.44;100675.06;1713270;84;21310;-81
2021/05/09 14:31:29;;;;;;;4.30;1.50;;;;;;;12.82;34.60;100680.22;1712154;82;21775;-81
2021/05/09 14:34:34;;;;;;;2.05;1.30;;;;;;;12.79;35.08;100667.70;1713393;84;21275;-81
2021/05/09 14:37:39;;;;;;;5.95;1.80;;;;;;;12.77;34.88;100655.21;1713358;84;21326;-81